Observations for BRIZE NORTON RA, United Kingdom (EGVN)

EGVN 221350Z 01011KT 9999 FEW040 13/02 Q1038 NOSIG  
EGVN 221350Z 01011KT 9999 FEW040 13/02 Q1038 BLU NOSIG
EGVN 221250Z 02010KT 9999 FEW028 13/03 Q1038 NOSIG  
EGVN 221250Z 02010KT 9999 FEW028 13/03 Q1038 BLU NOSIG
EGVN 221150Z 02010KT 9999 FEW028 12/05 Q1038 NOSIG  
EGVN 221150Z 02010KT 9999 FEW028 12/05 Q1038 BLU NOSIG
EGVN 221050Z 02012KT 9999 FEW024 11/05 Q1038 NOSIG  
EGVN 221050Z 02012KT 9999 FEW024 11/05 Q1038 BLU NOSIG
EGVN 220950Z 36010KT 9999 FEW015 10/05 Q1038 NOSIG  
EGVN 220950Z 36010KT 9999 FEW015 10/05 Q1038 BLU NOSIG
EGVN 220850Z 36008KT 9999 FEW032 09/06 Q1038 BLU NOSIG  
EGVN 220850Z 36008KT 9999 FEW032 09/06 Q1038 NOSIG
EGVN 220750Z 34007KT CAVOK 07/04 Q1037 NOSIG
EGVN 220750Z 34007KT CAVOK 07/04 Q1037 BLU NOSIG
EGVN 220650Z 34005KT CAVOK 05/03 Q1036 NOSIG
EGVN 220650Z 34005KT CAVOK 05/03 Q1036 BLU NOSIG
EGVN 220550Z 34003KT CAVOK 05/03 Q1036 NOSIG
EGVN 220550Z 34003KT CAVOK 05/03 Q1036 BLU NOSIG
EGVN 220450Z 36004KT CAVOK 06/03 Q1035 NOSIG
EGVN 220450Z 36004KT CAVOK 06/03 Q1035 BLU NOSIG
EGVN 220350Z 01009KT CAVOK 07/04 Q1034 BLU NOSIG
EGVN 220350Z 01009KT CAVOK 07/04 Q1034 NOSIG
EGVN 220250Z 03006KT CAVOK 07/04 Q1034 NOSIG
EGVN 220250Z 03006KT CAVOK 07/04 Q1034 BLU NOSIG
EGVN 220150Z 01010KT CAVOK 08/04 Q1034 NOSIG
EGVN 220150Z 01010KT CAVOK 08/04 Q1034 BLU NOSIG
EGVN 220050Z 01011KT CAVOK 09/05 Q1033 NOSIG
EGVN 220050Z 01011KT CAVOK 09/05 Q1033 BLU NOSIG
EGVN 212350Z 01013KT CAVOK 10/05 Q1032 NOSIG
EGVN 212350Z 01013KT CAVOK 10/05 Q1032 BLU NOSIG
EGVN 212250Z 01014KT CAVOK 12/07 Q1032 NOSIG
EGVN 212250Z 01014KT CAVOK 12/07 Q1032 BLU NOSIG
EGVN 212150Z 36011KT 9999 FEW040 BKN070 12/08 Q1031 NOSIG   
EGVN 212150Z 36011KT 9999 FEW040 BKN070 12/08 Q1031 BLU NOSIG
EGVN 212050Z 01009KT 9999 BKN035 SCT120 12/08 Q1030 NOSIG   
EGVN 212050Z 01009KT 9999 BKN035 SCT120 12/08 Q1030 BLU NOSIG
EGVN 211950Z 01012KT 9999 FEW010 BKN040 13/09 Q1030 TEMPO 01015G25KT
EGVN 211950Z 01012KT 9999 FEW010 BKN040 13/09 Q1030 BLU TEMPO 01015G25KT BLU
EGVN 211924Z 36009KT 9999 FEW010 SCT020 BKN030 13/11 Q1029 WHT BECMG FEW020 BKN035 BLU
EGVN 211850Z 35013KT 9999 -RA BKN013 BKN020 15/12 Q1029 TEMPO BKN020
EGVN 211850Z 35013KT 9999 -RA BKN013 BKN020 15/12 Q1029 GRN TEMPO BKN020 WHT
EGVN 211750Z 33004KT 9999 SCT022 BKN028 16/12 Q1028 WHT NOSIG   
EGVN 211750Z 33004KT 9999 SCT022 BKN028 16/12 Q1028 NOSIG
EGVN 211650Z 31007KT 9999 SCT022 BKN028 16/12 Q1027 NOSIG   
EGVN 211650Z 31007KT 9999 SCT022 BKN028 16/12 Q1027 WHT NOSIG
EGVN 211550Z 29004KT 9999 BKN028 18/11 Q1026 NOSIG  
EGVN 211550Z 29004KT 9999 BKN028 18/11 Q1026 BLU NOSIG
EGVN 211450Z 29005KT CAVOK 19/10 Q1026 NOSIG
EGVN 211450Z 29005KT CAVOK 19/10 Q1026 BLU NOSIG
EGVN 211350Z 24005KT CAVOK 19/10 Q1026 BLU NOSIG
EGVN 211350Z 24005KT CAVOK 19/10 Q1026 NOSIG